createdAt,value
2019-03-11T00:02:28.110Z,1.00
2019-03-11T00:04:56.568Z,0.87
2019-03-11T00:07:24.952Z,0.97
2019-03-11T00:09:53.352Z,1.00
2019-03-11T00:12:21.743Z,0.87
2019-03-11T00:14:50.171Z,1.00
2019-03-11T00:17:18.629Z,0.70
2019-03-11T00:19:47.016Z,0.73
2019-03-11T00:22:15.600Z,0.87
2019-03-11T00:24:43.984Z,0.60
2019-03-11T00:27:12.373Z,0.80
2019-03-11T00:29:40.912Z,0.90
2019-03-11T00:32:09.302Z,0.60
2019-03-11T00:34:37.690Z,0.80
2019-03-11T00:37:06.082Z,0.70
2019-03-11T00:39:34.472Z,0.67
2019-03-11T00:42:02.859Z,0.60
2019-03-11T00:44:31.323Z,0.60
2019-03-11T00:46:59.720Z,0.70
2019-03-11T00:49:28.119Z,0.43
2019-03-11T00:51:56.577Z,0.63
2019-03-11T00:54:24.960Z,0.50
2019-03-11T00:56:53.350Z,0.70
2019-03-11T00:59:21.742Z,0.60
2019-03-11T01:01:50.162Z,0.40
2019-03-11T01:04:18.632Z,0.60
2019-03-11T01:06:47.028Z,0.50
2019-03-11T01:09:15.417Z,0.40
2019-03-11T01:11:43.810Z,0.40
2019-03-11T01:14:12.199Z,0.40
2019-03-11T01:16:40.664Z,0.53
2019-03-11T01:19:09.126Z,0.57
2019-03-11T01:21:37.520Z,0.50
2019-03-11T01:24:06.075Z,0.40
2019-03-11T01:26:34.487Z,0.40
2019-03-11T01:29:02.866Z,0.57
2019-03-11T01:31:33.150Z,0.77
2019-03-11T01:34:01.364Z,0.50
2019-03-11T01:36:29.758Z,0.60
2019-03-11T01:38:58.143Z,0.70
2019-03-11T01:41:26.601Z,0.33
2019-03-11T01:43:54.997Z,0.40
2019-03-11T01:46:23.521Z,0.50
2019-03-11T01:48:51.911Z,0.43
2019-03-11T01:51:20.316Z,0.50
2019-03-11T01:53:48.706Z,0.40
2019-03-11T01:56:17.114Z,0.40
2019-03-11T01:58:45.500Z,0.40
2019-03-11T02:01:13.936Z,0.30
2019-03-11T02:03:42.311Z,0.30
2019-03-11T02:06:10.746Z,0.47
2019-03-11T02:08:39.141Z,0.50
2019-03-11T02:11:07.552Z,0.50
2019-03-11T02:13:35.936Z,0.50
2019-03-11T02:16:04.363Z,0.40
2019-03-11T02:18:32.820Z,0.60
2019-03-11T02:21:01.264Z,0.40
2019-03-11T02:23:29.681Z,0.40
2019-03-11T02:25:58.128Z,0.30
2019-03-11T02:28:26.511Z,0.30
2019-03-11T02:30:54.945Z,0.30
2019-03-11T02:33:23.340Z,0.27
2019-03-11T02:35:51.757Z,0.40
2019-03-11T02:38:20.146Z,0.40
2019-03-11T02:40:48.621Z,0.40
2019-03-11T02:43:17.004Z,0.10
2019-03-11T02:45:45.422Z,0.33
2019-03-11T02:48:13.806Z,0.30
2019-03-11T02:50:42.197Z,0.20
2019-03-11T02:53:10.597Z,0.40
2019-03-11T02:55:38.974Z,0.20
2019-03-11T02:58:07.386Z,0.30
2019-03-11T03:00:35.751Z,0.20
2019-03-11T03:03:14.367Z,0.20
2019-03-11T03:05:44.387Z,0.20
2019-03-11T03:08:12.786Z,0.20
2019-03-11T03:10:41.176Z,0.20
2019-03-11T03:13:09.581Z,0.30
2019-03-11T03:15:37.960Z,0.20
2019-03-11T03:18:06.352Z,0.23
2019-03-11T03:20:34.751Z,0.40
2019-03-11T03:23:03.146Z,0.30
2019-03-11T03:25:34.254Z,0.27
2019-03-11T03:28:01.833Z,0.20
2019-03-11T03:30:30.353Z,0.23
2019-03-11T03:32:58.813Z,0.17
2019-03-11T03:35:27.240Z,0.20
2019-03-11T03:37:55.629Z,0.30
2019-03-11T03:40:24.018Z,0.30
2019-03-11T03:42:52.597Z,0.30
2019-03-11T03:45:23.391Z,0.30
2019-03-11T03:47:51.783Z,0.50
2019-03-11T03:50:21.608Z,0.20
2019-03-11T03:52:49.999Z,0.30
2019-03-11T03:55:18.393Z,0.30
2019-03-11T03:57:46.819Z,0.20
2019-03-11T04:00:15.161Z,0.33
2019-03-11T04:02:43.563Z,0.20
2019-03-11T04:05:12.993Z,0.30
2019-03-11T04:07:41.397Z,0.30
2019-03-11T04:10:12.126Z,0.30
2019-03-11T04:12:40.641Z,0.17
2019-03-11T04:15:09.926Z,0.30
2019-03-11T04:17:38.318Z,0.20
2019-03-11T04:20:09.603Z,0.30
2019-03-11T04:22:38.009Z,0.30
2019-03-11T04:25:07.635Z,0.30
2019-03-11T04:27:36.065Z,0.20
2019-03-11T04:30:07.490Z,0.20
2019-03-11T04:32:35.911Z,0.20
2019-03-11T04:35:05.647Z,0.10
2019-03-11T04:37:34.045Z,0.33
2019-03-11T04:40:02.437Z,0.33
2019-03-11T04:42:30.868Z,0.30
2019-03-11T04:44:59.258Z,0.30
2019-03-11T04:47:27.677Z,0.20
2019-03-11T04:49:56.066Z,0.30
2019-03-11T04:52:24.497Z,0.10
2019-03-11T04:54:52.875Z,0.20
2019-03-11T04:57:23.466Z,0.30
2019-03-11T04:59:51.394Z,0.20
2019-03-11T05:02:19.826Z,0.20
2019-03-11T05:04:48.214Z,0.40
2019-03-11T05:07:16.738Z,0.33
2019-03-11T05:09:45.130Z,0.30
2019-03-11T05:12:13.384Z,0.33
2019-03-11T05:14:41.608Z,0.30
2019-03-11T05:17:10.030Z,0.10
2019-03-11T05:19:38.443Z,0.20
2019-03-11T05:22:06.832Z,0.20
2019-03-11T05:24:35.220Z,0.20
2019-03-11T05:27:03.627Z,0.20
2019-03-11T05:29:32.015Z,0.10
2019-03-11T05:32:00.439Z,0.10
2019-03-11T05:34:28.831Z,0.20
2019-03-11T05:36:57.267Z,0.20
2019-03-11T05:39:25.659Z,0.17
2019-03-11T05:41:54.043Z,0.20
2019-03-11T05:44:22.434Z,0.20
2019-03-11T05:46:50.819Z,0.20
2019-03-11T05:49:19.353Z,0.20
2019-03-11T05:51:47.738Z,0.23
2019-03-11T05:54:16.159Z,0.20
2019-03-11T05:56:44.539Z,0.30
2019-03-11T05:59:12.949Z,0.23
2019-03-11T06:01:41.341Z,0.40
2019-03-11T06:04:09.720Z,0.30
2019-03-11T06:06:38.102Z,0.30
2019-03-11T06:09:07.002Z,0.20
2019-03-11T06:11:35.394Z,0.30
2019-03-11T06:14:03.782Z,0.30
2019-03-11T06:16:32.168Z,0.37
2019-03-11T06:19:00.559Z,0.30
2019-03-11T06:21:30.625Z,0.20
2019-03-11T06:23:59.015Z,0.80
2019-03-11T06:26:27.400Z,0.30
2019-03-11T06:28:55.835Z,0.40
2019-03-11T06:31:24.221Z,0.40
2019-03-11T06:33:52.619Z,0.50
2019-03-11T06:36:21.007Z,0.20
2019-03-11T06:38:49.595Z,0.30
2019-03-11T06:41:17.982Z,0.40
2019-03-11T06:43:46.472Z,0.40
2019-03-11T06:46:14.914Z,0.30
2019-03-11T06:48:43.304Z,0.30
2019-03-11T06:51:11.698Z,0.23
2019-03-11T06:53:40.087Z,0.30
2019-03-11T06:56:08.472Z,0.50
2019-03-11T06:58:36.860Z,0.40
2019-03-11T07:01:05.250Z,0.30
2019-03-11T07:03:33.738Z,0.27
2019-03-11T07:06:02.147Z,0.40
2019-03-11T07:08:30.640Z,0.40
2019-03-11T07:10:59.029Z,0.43
2019-03-11T07:13:27.447Z,0.50
2019-03-11T07:15:55.841Z,0.30
2019-03-11T07:18:24.266Z,0.30
2019-03-11T07:20:52.656Z,0.40
2019-03-11T07:23:21.066Z,0.30
2019-03-11T07:25:49.455Z,0.40
2019-03-11T07:28:18.106Z,0.40
2019-03-11T07:30:46.496Z,0.30
2019-03-11T07:33:15.073Z,0.30
2019-03-11T07:35:43.467Z,0.40
2019-03-11T07:38:11.887Z,0.37
2019-03-11T07:40:40.363Z,0.23
2019-03-11T07:43:08.905Z,0.30
2019-03-11T07:45:37.277Z,0.50
2019-03-11T07:48:05.708Z,0.30
2019-03-11T07:50:34.088Z,0.60
2019-03-11T07:53:02.508Z,0.50
2019-03-11T07:55:30.947Z,0.63
2019-03-11T07:57:59.302Z,0.87
2019-03-11T08:00:27.692Z,0.80
2019-03-11T08:02:56.082Z,0.90
2019-03-11T08:05:24.467Z,0.73
2019-03-11T08:07:52.982Z,0.97
2019-03-11T08:10:25.242Z,0.90
2019-03-11T08:12:53.632Z,0.90
2019-03-11T08:15:22.029Z,0.80
2019-03-11T08:17:50.416Z,0.80
2019-03-11T08:20:18.876Z,1.00
2019-03-11T08:22:47.268Z,0.90
2019-03-11T08:25:16.125Z,0.90
2019-03-11T08:27:44.780Z,0.70
2019-03-11T08:30:22.842Z,0.93
2019-03-11T08:32:51.229Z,1.00
2019-03-11T08:35:19.649Z,0.70
2019-03-11T08:37:48.019Z,1.00
2019-03-11T08:40:17.769Z,0.80
2019-03-11T08:42:46.149Z,0.87
2019-03-11T08:45:15.719Z,0.60
2019-03-11T08:47:44.229Z,0.80
2019-03-11T08:50:16.291Z,1.00
2019-03-11T08:52:44.742Z,0.80
2019-03-11T08:55:13.214Z,0.80
2019-03-11T08:57:41.682Z,0.87
2019-03-11T09:00:14.276Z,0.70
2019-03-11T09:02:42.667Z,0.80
2019-03-11T09:05:11.831Z,0.70
2019-03-11T09:07:40.238Z,0.70
2019-03-11T09:10:15.954Z,0.83
2019-03-11T09:12:44.361Z,0.77
2019-03-11T09:15:22.023Z,0.70
2019-03-11T09:17:50.407Z,0.80
2019-03-11T09:20:19.135Z,0.80
2019-03-11T09:22:47.523Z,0.80
2019-03-11T09:25:18.809Z,0.77
2019-03-11T09:27:47.230Z,0.70
2019-03-11T09:30:20.127Z,0.67
2019-03-11T09:32:48.522Z,0.90
2019-03-11T09:35:17.004Z,0.80
2019-03-11T09:37:45.385Z,0.73
2019-03-11T09:40:21.075Z,0.70
2019-03-11T09:42:49.473Z,0.80
2019-03-11T09:45:18.909Z,0.70
2019-03-11T09:47:47.471Z,0.70
2019-03-11T09:50:16.226Z,0.83
2019-03-11T09:52:44.759Z,0.80
2019-03-11T09:55:16.031Z,0.80
2019-03-11T09:57:44.423Z,1.00
2019-03-11T10:00:24.907Z,1.03
2019-03-11T10:02:53.764Z,1.00
2019-03-11T10:05:22.754Z,1.00
2019-03-11T10:07:51.179Z,1.00
2019-03-11T10:10:24.836Z,1.00
2019-03-11T10:12:53.215Z,1.00
2019-03-11T10:15:22.568Z,1.00
2019-03-11T10:17:50.955Z,1.30
2019-03-11T10:20:20.459Z,1.40
2019-03-11T10:22:48.844Z,1.97
2019-03-11T10:25:17.894Z,3.20
2019-03-11T10:27:46.313Z,4.43
2019-03-11T10:30:22.452Z,6.33
2019-03-11T10:32:50.950Z,8.40
2019-03-11T10:35:31.456Z,9.73
2019-03-11T10:37:50.203Z,11.20
2019-03-11T10:40:23.575Z,11.70
2019-03-11T10:42:51.991Z,13.70
2019-03-11T10:45:30.223Z,13.80
2019-03-11T10:47:50.505Z,15.80
2019-03-11T10:53:44.910Z,14.70
2019-03-11T10:56:13.342Z,15.37
2019-03-11T10:58:41.740Z,16.10
2019-03-11T11:01:10.214Z,16.13
2019-03-11T11:03:38.660Z,14.43
2019-03-11T11:06:06.884Z,15.50
2019-03-11T11:08:35.288Z,15.43
2019-03-11T11:11:03.682Z,16.43
2019-03-11T11:13:32.078Z,14.97
2019-03-11T11:16:00.480Z,16.10
2019-03-11T11:18:28.903Z,15.23
2019-03-11T11:20:57.297Z,14.67
2019-03-11T11:23:25.702Z,14.57
2019-03-11T11:25:54.092Z,14.77
2019-03-11T11:28:24.711Z,15.17
2019-03-11T11:30:53.118Z,14.10
2019-03-11T11:33:21.515Z,14.40
2019-03-11T11:35:49.913Z,13.87
2019-03-11T11:38:18.319Z,13.87
2019-03-11T11:40:46.720Z,12.90
2019-03-11T11:43:15.116Z,13.13
2019-03-11T11:45:43.508Z,12.77
2019-03-11T11:48:11.978Z,12.37
2019-03-11T11:50:40.410Z,12.77
2019-03-11T11:53:08.847Z,12.03
2019-03-11T11:55:37.330Z,13.00
2019-03-11T11:58:05.753Z,12.03
2019-03-11T12:00:38.814Z,12.40
2019-03-11T12:03:07.223Z,12.83
2019-03-11T12:05:35.651Z,11.37
2019-03-11T12:08:04.046Z,11.83
2019-03-11T12:10:33.522Z,11.50
2019-03-11T12:13:01.925Z,11.80
2019-03-11T12:15:30.337Z,11.00
2019-03-11T12:17:58.741Z,10.57
2019-03-11T12:20:28.028Z,10.83
2019-03-11T12:22:56.429Z,10.67
2019-03-11T12:25:24.971Z,10.63
2019-03-11T12:27:56.020Z,10.00
2019-03-11T12:30:30.641Z,10.23
2019-03-11T12:32:59.030Z,10.30
2019-03-11T12:35:27.707Z,10.10
2019-03-11T12:37:56.409Z,11.07
2019-03-11T12:40:24.871Z,10.13
2019-03-11T12:42:53.293Z,9.67
2019-03-11T12:45:22.942Z,9.27
2019-03-11T12:47:51.339Z,9.87
2019-03-11T12:50:27.412Z,9.70
2019-03-11T12:52:55.800Z,8.83
2019-03-11T12:55:24.194Z,8.70
2019-03-11T12:57:52.575Z,8.80
2019-03-11T13:00:24.848Z,9.53
2019-03-11T13:02:53.244Z,8.63
2019-03-11T13:05:21.639Z,8.10
2019-03-11T13:07:50.097Z,8.13
2019-03-11T13:10:23.465Z,8.07
2019-03-11T13:12:52.030Z,7.90
2019-03-11T13:15:20.599Z,7.80
2019-03-11T13:17:49.064Z,8.23
2019-03-11T13:20:29.807Z,7.70
2019-03-11T13:22:58.336Z,7.17
2019-03-11T13:25:26.763Z,7.27
2019-03-11T13:27:55.182Z,7.33
2019-03-11T13:30:23.592Z,7.40
2019-03-11T13:32:51.886Z,6.70
2019-03-11T13:35:20.309Z,6.73
2019-03-11T13:37:48.703Z,7.00
2019-03-11T13:40:18.765Z,6.90
2019-03-11T13:42:47.157Z,6.27
2019-03-11T13:45:19.146Z,6.70
2019-03-11T13:47:47.542Z,6.97
2019-03-11T13:50:17.413Z,6.73
2019-03-11T13:52:45.862Z,6.50
2019-03-11T13:55:17.529Z,6.40
2019-03-11T13:57:45.985Z,6.40
2019-03-11T14:00:19.706Z,6.80
2019-03-11T14:02:48.098Z,5.93
2019-03-11T14:05:16.490Z,7.60
2019-03-11T14:07:44.973Z,6.33
2019-03-11T14:10:14.296Z,6.20
2019-03-11T14:12:42.693Z,6.47
2019-03-11T14:15:14.071Z,6.17
2019-03-11T14:17:42.475Z,6.10
2019-03-11T14:20:12.400Z,5.87
2019-03-11T14:22:40.874Z,6.03
2019-03-11T14:25:10.498Z,5.83
2019-03-11T14:27:38.972Z,6.43
2019-03-11T14:30:15.697Z,6.33
2019-03-11T14:32:44.105Z,6.37
2019-03-11T14:35:13.160Z,6.27
2019-03-11T14:37:41.583Z,6.17
2019-03-11T14:40:17.786Z,6.00
2019-03-11T14:42:47.846Z,6.20
2019-03-11T14:45:23.381Z,6.43
2019-03-11T14:47:51.785Z,6.27
2019-03-11T14:50:20.232Z,6.33
2019-03-11T14:52:48.620Z,5.97
2019-03-11T14:55:17.016Z,6.13
2019-03-11T14:57:45.422Z,6.90
2019-03-11T15:00:21.813Z,6.30
2019-03-11T15:02:50.276Z,6.63
2019-03-11T15:05:19.344Z,6.63
2019-03-11T15:07:47.921Z,5.70
2019-03-11T15:10:17.710Z,6.20
2019-03-11T15:12:46.105Z,6.40
2019-03-11T15:15:23.001Z,6.50
2019-03-11T15:17:51.397Z,6.73
2019-03-11T15:20:19.783Z,6.80
2019-03-11T15:22:48.174Z,6.80
2019-03-11T15:25:17.001Z,6.70
2019-03-11T15:27:45.728Z,7.43
2019-03-11T15:30:18.436Z,7.57
2019-03-11T15:32:46.881Z,7.97
2019-03-11T15:35:15.278Z,7.80
2019-03-11T15:37:43.666Z,8.77
2019-03-11T15:40:18.004Z,8.23
2019-03-11T15:42:46.402Z,8.70
2019-03-11T15:45:19.787Z,8.53
2019-03-11T15:47:48.196Z,8.60
2019-03-11T15:50:22.423Z,9.63
2019-03-11T15:52:50.813Z,8.83
2019-03-11T15:55:19.199Z,8.93
2019-03-11T15:57:47.608Z,9.13
2019-03-11T16:00:20.735Z,9.57
2019-03-11T16:02:49.195Z,9.67
2019-03-11T16:05:21.849Z,9.63
2019-03-11T16:07:50.736Z,9.80
2019-03-11T16:10:19.232Z,9.80
2019-03-11T16:12:47.906Z,9.53
2019-03-11T16:15:17.470Z,9.70
2019-03-11T16:17:47.227Z,9.50
2019-03-11T16:20:18.226Z,10.03
2019-03-11T16:22:46.730Z,10.97
2019-03-11T16:25:15.128Z,11.00
2019-03-11T16:27:43.569Z,11.47
2019-03-11T16:30:27.619Z,10.63
2019-03-11T16:32:59.862Z,11.63
2019-03-11T16:35:27.703Z,11.40
2019-03-11T16:37:56.106Z,11.03
2019-03-11T16:40:24.573Z,11.63
2019-03-11T16:42:52.984Z,10.97
2019-03-11T16:45:21.454Z,10.83
2019-03-11T16:47:49.859Z,11.53
2019-03-11T16:50:19.690Z,11.20
2019-03-11T16:52:48.094Z,11.17
2019-03-11T16:55:19.964Z,11.50
2019-03-11T16:57:48.365Z,11.47
2019-03-11T17:00:19.071Z,11.57
2019-03-11T17:02:47.695Z,10.87
2019-03-11T17:05:16.096Z,11.17
2019-03-11T17:07:44.510Z,11.40
2019-03-11T17:10:18.993Z,11.00
2019-03-11T17:12:47.389Z,11.63
2019-03-11T17:15:15.792Z,12.43
2019-03-11T17:17:44.194Z,12.10
2019-03-11T17:20:20.190Z,12.50
2019-03-11T17:22:49.662Z,13.87
2019-03-11T17:25:18.056Z,12.90
2019-03-11T17:27:46.477Z,13.53
2019-03-11T17:30:20.033Z,13.27
2019-03-11T17:32:48.488Z,13.47
2019-03-11T17:35:17.199Z,13.50
2019-03-11T17:37:46.009Z,11.90
2019-03-11T17:40:21.806Z,12.90
2019-03-11T17:42:50.378Z,12.73
2019-03-11T17:45:18.904Z,13.30
2019-03-11T17:47:47.335Z,12.40
2019-03-11T17:50:23.807Z,12.60
2019-03-11T17:52:52.248Z,11.87
2019-03-11T17:55:20.983Z,12.13
2019-03-11T17:57:49.414Z,12.67
2019-03-11T18:00:25.655Z,11.47
2019-03-11T18:02:54.759Z,11.40
2019-03-11T18:05:23.149Z,11.53
2019-03-11T18:07:51.648Z,11.50
2019-03-11T18:10:20.123Z,11.70
2019-03-11T18:12:48.560Z,11.57
2019-03-11T18:15:17.061Z,11.73
2019-03-11T18:17:45.519Z,11.60
2019-03-11T18:20:20.406Z,11.87
2019-03-11T18:22:48.842Z,10.40
2019-03-11T18:25:20.981Z,10.90
2019-03-11T18:27:49.514Z,11.13
2019-03-11T18:30:23.172Z,10.77
2019-03-11T18:32:51.534Z,10.67
2019-03-11T18:35:19.983Z,10.50
2019-03-11T18:37:48.356Z,10.40
2019-03-11T18:40:19.056Z,11.07
2019-03-11T18:42:47.465Z,10.00
2019-03-11T18:45:16.628Z,10.47
2019-03-11T18:47:45.029Z,10.53
2019-03-11T18:50:22.029Z,10.30
2019-03-11T18:52:50.420Z,10.23
2019-03-11T18:55:18.820Z,9.00
2019-03-11T18:57:48.904Z,11.87
2019-03-11T19:00:18.614Z,11.27
2019-03-11T19:02:47.004Z,11.13
2019-03-11T19:05:16.941Z,12.00
2019-03-11T19:07:45.426Z,12.50
2019-03-11T19:10:15.395Z,12.33
2019-03-11T19:12:43.813Z,12.43
2019-03-11T19:15:20.626Z,13.03
2019-03-11T19:17:49.150Z,12.43
2019-03-11T19:20:20.160Z,13.03
2019-03-11T19:22:48.683Z,13.43
2019-03-11T19:25:17.569Z,13.67
2019-03-11T19:27:46.059Z,12.90
2019-03-11T19:30:19.242Z,13.17
2019-03-11T19:32:47.698Z,12.90
2019-03-11T19:35:17.648Z,12.07
2019-03-11T19:37:46.100Z,12.60
2019-03-11T19:40:18.935Z,12.97
2019-03-11T19:42:47.378Z,12.37
2019-03-11T19:45:16.632Z,12.07
2019-03-11T19:47:45.150Z,12.23
2019-03-11T19:50:15.659Z,12.20
2019-03-11T19:52:44.127Z,11.97
2019-03-11T19:55:12.591Z,11.33
2019-03-11T19:57:41.122Z,12.17
2019-03-11T20:00:12.614Z,11.63
2019-03-11T20:02:41.162Z,10.80
2019-03-11T20:05:13.235Z,11.47
2019-03-11T20:07:41.819Z,12.60
2019-03-11T20:10:11.856Z,41.63
2019-03-11T20:12:40.249Z,55.77
2019-03-11T20:15:12.096Z,70.10
2019-03-11T20:17:40.643Z,63.97
2019-03-11T20:20:19.452Z,66.03
2019-03-11T20:22:50.192Z,58.27
2019-03-11T20:25:27.864Z,51.97
2019-03-11T20:27:56.374Z,48.00
2019-03-11T20:30:25.251Z,49.93
2019-03-11T20:32:53.686Z,45.57
2019-03-11T20:35:22.136Z,46.50
2019-03-11T20:37:51.755Z,42.50
2019-03-11T20:40:20.211Z,39.43
2019-03-11T20:42:48.665Z,41.33
2019-03-11T20:45:21.049Z,39.40
2019-03-11T20:47:49.478Z,37.97
2019-03-11T20:50:18.684Z,37.40
2019-03-11T20:52:47.099Z,36.70
2019-03-11T20:55:22.024Z,36.33
2019-03-11T20:57:50.541Z,34.67
2019-03-11T21:00:23.041Z,35.10
2019-03-11T21:02:51.601Z,33.37
2019-03-11T21:05:39.874Z,34.57
2019-03-11T21:08:08.286Z,34.33
2019-03-11T21:10:36.793Z,32.23
2019-03-11T21:13:05.316Z,33.07
2019-03-11T21:15:33.778Z,31.90
2019-03-11T21:18:02.430Z,35.23
2019-03-11T21:20:30.847Z,32.03
2019-03-11T21:22:59.226Z,34.73
2019-03-11T21:25:27.780Z,35.27
2019-03-11T21:27:56.213Z,33.00
2019-03-11T21:30:25.902Z,35.20
2019-03-11T21:32:54.369Z,32.97
2019-03-11T21:35:22.826Z,33.60
2019-03-11T21:37:51.263Z,34.30
2019-03-11T21:40:21.855Z,33.77
2019-03-11T21:42:50.368Z,31.30
2019-03-11T21:45:19.176Z,32.30
2019-03-11T21:47:50.727Z,32.63
2019-03-11T21:50:28.357Z,33.83
2019-03-11T21:52:57.268Z,33.30
2019-03-11T21:55:25.735Z,31.17
2019-03-11T21:57:54.189Z,31.53
2019-03-11T22:00:34.566Z,30.63
2019-03-11T22:02:55.932Z,28.73
2019-03-11T22:05:24.411Z,28.20
2019-03-11T22:07:53.083Z,25.77
2019-03-11T22:10:21.746Z,24.27
2019-03-11T22:12:50.149Z,24.07
2019-03-11T22:15:20.295Z,23.83
2019-03-11T22:17:54.767Z,22.50
2019-03-11T22:20:23.263Z,20.60
2019-03-11T22:22:51.660Z,21.13
2019-03-11T22:25:23.636Z,19.20
2019-03-11T22:27:52.032Z,20.60
2019-03-11T22:30:22.523Z,19.67
2019-03-11T22:32:51.039Z,19.23
2019-03-11T22:35:19.453Z,17.97
2019-03-11T22:37:47.849Z,18.43
2019-03-11T22:40:17.378Z,15.37
2019-03-11T22:42:45.904Z,17.23
2019-03-11T22:45:23.599Z,16.30
2019-03-11T22:47:52.178Z,16.00
2019-03-11T22:50:20.761Z,13.67
2019-03-11T22:52:49.120Z,15.33
2019-03-11T22:55:17.662Z,14.77
2019-03-11T22:57:46.067Z,14.43
2019-03-11T23:01:00.603Z,13.77
2019-03-11T23:03:29.120Z,13.60
2019-03-11T23:05:58.716Z,13.03
2019-03-11T23:08:27.303Z,12.80
2019-03-11T23:10:55.698Z,12.43
2019-03-11T23:13:24.104Z,11.60
2019-03-11T23:15:52.553Z,10.80
2019-03-11T23:18:20.941Z,10.77
2019-03-11T23:20:49.368Z,10.77
2019-03-11T23:23:17.760Z,10.17
2019-03-11T23:25:46.181Z,9.60
2019-03-11T23:28:14.581Z,9.77
2019-03-11T23:30:43.048Z,9.00
2019-03-11T23:33:11.442Z,9.23
2019-03-11T23:35:39.864Z,9.20
2019-03-11T23:38:08.253Z,8.23
2019-03-11T23:40:36.678Z,7.80
2019-03-11T23:43:05.116Z,7.57
2019-03-11T23:45:33.562Z,8.20
2019-03-11T23:48:01.953Z,7.47
2019-03-11T23:50:30.345Z,7.50
2019-03-11T23:52:58.787Z,7.53
2019-03-11T23:55:27.237Z,7.23
2019-03-11T23:57:55.630Z,7.60
